Station Historical Data
Daily Summary for December 8, 2017 Units:  Both    English   Metric
Next Day »
Daily Weekly Monthly Yearly Custom
  High: Low: Average:
Temperature: 58.3 °F /  14.6 °C 45.8 °F /  7.7 °C 51.3 °F /  10.7 °C
Dew Point: 39.3 °F /  4.1 °C 16.4 °F /  -8.7 °C 30.4 °F /  -0.9 °C
Humidity: 65% 23% 46%
Wind Speed: 12.0mph /  19.3km/h - 0.5mph /  0.8km/h
Wind Gust: 12.0mph /  19.3km/h - -
Wind- - SE
Pressure: 30.50 in /  1032.7 hPa 30.39 in /  1029 hPa -
Precipitation: 0.00 in /  0 mm    
Historical Graphs
 
 
Tabular Data for December 8, 2017
Time Temperature Dew Point Pressure Wind Wind Speed Wind Gust Humidity Rainfall Rate (Hourly) solar Conditions
00:03 52.5 °F /  11.4 °C 19.5 °F /  -6.9 °C 30.48in /  1032.1hPa Calm   6.0mph /  9.7km/h 27% 0.00in /  0mm 0.00 W/m2
00:07 52.5 °F /  11.4 °C 18.6 °F /  -7.4 °C 30.48in /  1032.1hPa ENE 2.0mph /  3.2km/h 2.0mph /  3.2km/h 26% 0.00in /  0mm 0.00 W/m2
00:12 52.6 °F /  11.4 °C 18.7 °F /  -7.4 °C 30.48in /  1032.1hPa ENE 3.0mph /  4.8km/h 6.0mph /  9.7km/h 26% 0.00in /  0mm 0.00 W/m2
00:17 52.6 °F /  11.4 °C 18.7 °F /  -7.4 °C 30.47in /  1031.7hPa Calm   3.0mph /  4.8km/h 26% 0.00in /  0mm 0.00 W/m2
00:22 52.7 °F /  11.5 °C 19.7 °F /  -6.8 °C 30.47in /  1031.7hPa Calm   3.0mph /  4.8km/h 27% 0.00in /  0mm 0.00 W/m2
00:27 52.8 °F /  11.6 °C 18.9 °F /  -7.3 °C 30.47in /  1031.7hPa NE 1.0mph /  1.6km/h 4.0mph /  6.4km/h 26% 0.00in /  0mm 0.00 W/m2
00:37 53.1 °F /  11.7 °C 17.3 °F /  -8.2 °C 30.47in /  1031.7hPa Calm   1.0mph /  1.6km/h 24% 0.00in /  0mm 0.00 W/m2
00:42 53.2 °F /  11.8 °C 17.4 °F /  -8.1 °C 30.47in /  1031.7hPa Calm     24% 0.00in /  0mm 0.00 W/m2
00:52 53.2 °F /  11.8 °C 16.4 °F /  -8.7 °C 30.47in /  1031.7hPa Calm     23% 0.00in /  0mm 0.00 W/m2
00:57 53.2 °F /  11.8 °C 18.3 °F /  -7.6 °C 30.47in /  1031.7hPa Calm     25% 0.00in /  0mm 0.00 W/m2
01:12 53.0 °F /  11.7 °C 19.0 °F /  -7.2 °C 30.47in /  1031.7hPa Calm   1.0mph /  1.6km/h 26% 0.00in /  0mm 0.00 W/m2
01:17 52.8 °F /  11.6 °C 19.8 °F /  -6.8 °C 30.47in /  1031.7hPa ENE 1.0mph /  1.6km/h 1.0mph /  1.6km/h 27% 0.00in /  0mm 0.00 W/m2
01:27 52.4 °F /  11.3 °C 22.7 °F /  -5.2 °C 30.47in /  1031.7hPa Calm     31% 0.00in /  0mm 0.00 W/m2
01:32 52.2 °F /  11.2 °C 23.2 °F /  -4.9 °C 30.47in /  1031.7hPa Calm   1.0mph /  1.6km/h 32% 0.00in /  0mm 0.00 W/m2
01:37 51.8 °F /  11 °C 22.1 °F /  -5.5 °C 30.47in /  1031.7hPa Calm     31% 0.00in /  0mm 0.00 W/m2
01:42 51.4 °F /  10.8 °C 21.8 °F /  -5.7 °C 30.48in /  1032.1hPa Calm     31% 0.00in /  0mm 0.00 W/m2
01:52 50.9 °F /  10.5 °C 19.8 °F /  -6.8 °C 30.47in /  1031.7hPa Calm     29% 0.00in /  0mm 0.00 W/m2
01:57 50.7 °F /  10.4 °C 21.9 °F /  -5.6 °C 30.47in /  1031.7hPa Calm     32% 0.00in /  0mm 0.00 W/m2
02:02 50.5 °F /  10.3 °C 20.2 °F /  -6.6 °C 30.47in /  1031.7hPa Calm     30% 0.00in /  0mm 0.00 W/m2
02:07 50.4 °F /  10.2 °C 19.4 °F /  -7 °C 30.47in /  1031.7hPa Calm     29% 0.00in /  0mm 0.00 W/m2
02:12 50.3 °F /  10.2 °C 18.5 °F /  -7.5 °C 30.47in /  1031.7hPa Calm     28% 0.00in /  0mm 0.00 W/m2
02:17 50.3 °F /  10.2 °C 19.3 °F /  -7.1 °C 30.48in /  1032.1hPa Calm     29% 0.00in /  0mm 0.00 W/m2
02:22 50.2 °F /  10.1 °C 22.9 °F /  -5.1 °C 30.48in /  1032.1hPa Calm     34% 0.00in /  0mm 0.00 W/m2
02:28 49.9 °F /  9.9 °C 22.7 °F /  -5.2 °C 30.48in /  1032.1hPa Calm     34% 0.00in /  0mm 0.00 W/m2
02:33 49.6 °F /  9.8 °C 24.4 °F /  -4.2 °C 30.48in /  1032.1hPa Calm     37% 0.00in /  0mm 0.00 W/m2
02:43 48.9 °F /  9.4 °C 22.5 °F /  -5.3 °C 30.48in /  1032.1hPa Calm     35% 0.00in /  0mm 0.00 W/m2
02:48 48.5 °F /  9.2 °C 23.4 °F /  -4.8 °C 30.47in /  1031.7hPa Calm     37% 0.00in /  0mm 0.00 W/m2
02:58 47.9 °F /  8.8 °C 22.9 °F /  -5.1 °C 30.47in /  1031.7hPa Calm     37% 0.00in /  0mm 0.00 W/m2
03:03 47.5 °F /  8.6 °C 23.2 °F /  -4.9 °C 30.47in /  1031.7hPa Calm   1.0mph /  1.6km/h 38% 0.00in /  0mm 0.00 W/m2
03:08 47.2 °F /  8.4 °C 24.1 °F /  -4.4 °C 30.48in /  1032.1hPa Calm     40% 0.00in /  0mm 0.00 W/m2
03:13 47.0 °F /  8.3 °C 24.5 °F /  -4.2 °C 30.48in /  1032.1hPa Calm     41% 0.00in /  0mm 0.00 W/m2
03:18 46.8 °F /  8.2 °C 24.4 °F /  -4.2 °C 30.47in /  1031.7hPa Calm     41% 0.00in /  0mm 0.00 W/m2
03:28 46.3 °F /  7.9 °C 24.5 °F /  -4.2 °C 30.47in /  1031.7hPa Calm   6.0mph /  9.7km/h 42% 0.00in /  0mm 0.00 W/m2
03:38 45.8 °F /  7.7 °C 24.0 °F /  -4.4 °C 30.46in /  1031.4hPa East 4.0mph /  6.4km/h 5.0mph /  8km/h 42% 0.00in /  0mm 0.00 W/m2
03:43 45.8 °F /  7.7 °C 25.1 °F /  -3.8 °C 30.46in /  1031.4hPa Calm   5.0mph /  8km/h 44% 0.00in /  0mm 0.00 W/m2
03:48 45.9 °F /  7.7 °C 25.8 °F /  -3.4 °C 30.46in /  1031.4hPa East 2.0mph /  3.2km/h 5.0mph /  8km/h 45% 0.00in /  0mm 0.00 W/m2
03:53 46.1 °F /  7.8 °C 24.9 °F /  -3.9 °C 30.46in /  1031.4hPa East 1.0mph /  1.6km/h 4.0mph /  6.4km/h 43% 0.00in /  0mm 0.00 W/m2
04:03 46.6 °F /  8.1 °C 23.0 °F /  -5 °C 30.46in /  1031.4hPa East 4.0mph /  6.4km/h 5.0mph /  8km/h 39% 0.00in /  0mm 0.00 W/m2
04:08 46.9 °F /  8.3 °C 23.9 °F /  -4.5 °C 30.46in /  1031.4hPa ESE 1.0mph /  1.6km/h 6.0mph /  9.7km/h 40% 0.00in /  0mm 0.00 W/m2
04:13 47.2 °F /  8.4 °C 23.5 °F /  -4.7 °C 30.46in /  1031.4hPa ESE 1.0mph /  1.6km/h 4.0mph /  6.4km/h 39% 0.00in /  0mm 0.00 W/m2
04:18 47.4 °F /  8.6 °C 23.7 °F /  -4.6 °C 30.46in /  1031.4hPa ESE 2.0mph /  3.2km/h 6.0mph /  9.7km/h 39% 0.00in /  0mm 0.00 W/m2
04:23 47.5 °F /  8.6 °C 23.2 °F /  -4.9 °C 30.46in /  1031.4hPa Calm   6.0mph /  9.7km/h 38% 0.00in /  0mm 0.00 W/m2
04:44 47.9 °F /  8.8 °C 23.5 °F /  -4.7 °C 30.46in /  1031.4hPa East 1.0mph /  1.6km/h 12.0mph /  19.3km/h 38% 0.00in /  0mm 0.00 W/m2
04:49 48.1 °F /  8.9 °C 23.7 °F /  -4.6 °C 30.46in /  1031.4hPa East 6.0mph /  9.7km/h 9.0mph /  14.5km/h 38% 0.00in /  0mm 0.00 W/m2
04:54 48.2 °F /  9 °C 24.4 °F /  -4.2 °C 30.46in /  1031.4hPa Calm   9.0mph /  14.5km/h 39% 0.00in /  0mm 0.00 W/m2
04:59 48.3 °F /  9.1 °C 24.5 °F /  -4.2 °C 30.47in /  1031.7hPa Calm   7.0mph /  11.3km/h 39% 0.00in /  0mm 0.00 W/m2
05:04 48.4 °F /  9.1 °C 23.3 °F /  -4.8 °C 30.47in /  1031.7hPa ESE 1.0mph /  1.6km/h 5.0mph /  8km/h 37% 0.00in /  0mm 0.00 W/m2
05:19 48.6 °F /  9.2 °C 22.9 °F /  -5.1 °C 30.47in /  1031.7hPa SE 1.0mph /  1.6km/h 6.0mph /  9.7km/h 36% 0.00in /  0mm 0.00 W/m2
05:34 48.4 °F /  9.1 °C 24.6 °F /  -4.1 °C 30.48in /  1032.1hPa Calm   5.0mph /  8km/h 39% 0.00in /  0mm 0.00 W/m2
05:39 48.2 °F /  9 °C 23.8 °F /  -4.6 °C 30.48in /  1032.1hPa Calm   4.0mph /  6.4km/h 38% 0.00in /  0mm 0.00 W/m2
05:44 48.0 °F /  8.9 °C 24.2 °F /  -4.3 °C 30.48in /  1032.1hPa Calm   2.0mph /  3.2km/h 39% 0.00in /  0mm 0.00 W/m2
05:49 47.7 °F /  8.7 °C 24.0 °F /  -4.4 °C 30.48in /  1032.1hPa Calm     39% 0.00in /  0mm 0.00 W/m2
05:54 47.5 °F /  8.6 °C 24.4 °F /  -4.2 °C 30.48in /  1032.1hPa Calm     40% 0.00in /  0mm 0.00 W/m2
05:59 47.3 °F /  8.5 °C 25.4 °F /  -3.7 °C 30.49in /  1032.4hPa Calm     42% 0.00in /  0mm 0.00 W/m2
06:09 47.0 °F /  8.3 °C 24.0 °F /  -4.4 °C 30.49in /  1032.4hPa Calm     40% 0.00in /  0mm 0.00 W/m2
06:14 46.9 °F /  8.3 °C 25.0 °F /  -3.9 °C 30.49in /  1032.4hPa Calm     42% 0.00in /  0mm 0.00 W/m2
06:45 46.4 °F /  8 °C 25.1 °F /  -3.8 °C 30.49in /  1032.4hPa Calm     43% 0.00in /  0mm 0.00 W/m2
06:50 46.4 °F /  8 °C 26.2 °F /  -3.2 °C 30.49in /  1032.4hPa Calm     45% 0.00in /  0mm 0.00 W/m2
06:55 46.4 °F /  8 °C 26.8 °F /  -2.9 °C 30.49in /  1032.4hPa Calm     46% 0.00in /  0mm 0.00 W/m2
07:00 46.4 °F /  8 °C 26.8 °F /  -2.9 °C 30.48in /  1032.1hPa Calm     46% 0.00in /  0mm 9.00 W/m2
07:10 46.3 °F /  7.9 °C 26.7 °F /  -2.9 °C 30.49in /  1032.4hPa Calm     46% 0.00in /  0mm 12.00 W/m2
07:15 46.2 °F /  7.9 °C 25.5 °F /  -3.6 °C 30.49in /  1032.4hPa Calm     44% 0.00in /  0mm 9.00 W/m2
07:30 45.9 °F /  7.7 °C 25.8 °F /  -3.4 °C 30.49in /  1032.4hPa Calm   6.0mph /  9.7km/h 45% 0.00in /  0mm 25.00 W/m2
07:40 45.9 °F /  7.7 °C 24.7 °F /  -4.1 °C 30.49in /  1032.4hPa East 2.0mph /  3.2km/h 6.0mph /  9.7km/h 43% 0.00in /  0mm 46.00 W/m2
07:45 46.0 °F /  7.8 °C 24.8 °F /  -4 °C 30.49in /  1032.4hPa East 1.0mph /  1.6km/h 5.0mph /  8km/h 43% 0.00in /  0mm 47.00 W/m2
07:50 46.1 °F /  7.8 °C 25.4 °F /  -3.7 °C 30.49in /  1032.4hPa East 1.0mph /  1.6km/h 5.0mph /  8km/h 44% 0.00in /  0mm 62.00 W/m2
07:55 46.2 °F /  7.9 °C 25.5 °F /  -3.6 °C 30.49in /  1032.4hPa Calm   5.0mph /  8km/h 44% 0.00in /  0mm 72.00 W/m2
08:00 46.3 °F /  7.9 °C 25.6 °F /  -3.6 °C 30.49in /  1032.4hPa Calm   5.0mph /  8km/h 44% 0.00in /  0mm 84.00 W/m2
08:10 46.6 °F /  8.1 °C 26.9 °F /  -2.8 °C 30.50in /  1032.7hPa East 1.0mph /  1.6km/h 4.0mph /  6.4km/h 46% 0.00in /  0mm 100.00 W/m2
08:15 46.7 °F /  8.2 °C 27.0 °F /  -2.8 °C 30.50in /  1032.7hPa Calm   4.0mph /  6.4km/h 46% 0.00in /  0mm 116.00 W/m2
08:20 46.8 °F /  8.2 °C 26.6 °F /  -3 °C 30.50in /  1032.7hPa Calm   4.0mph /  6.4km/h 45% 0.00in /  0mm 130.00 W/m2
08:25 46.9 °F /  8.3 °C 27.2 °F /  -2.7 °C 30.50in /  1032.7hPa East 1.0mph /  1.6km/h 5.0mph /  8km/h 46% 0.00in /  0mm 151.00 W/m2
08:30 47.0 °F /  8.3 °C 27.3 °F /  -2.6 °C 30.50in /  1032.7hPa East 1.0mph /  1.6km/h 4.0mph /  6.4km/h 46% 0.00in /  0mm 174.00 W/m2
08:40 47.1 °F /  8.4 °C 28.9 °F /  -1.7 °C 30.49in /  1032.4hPa Calm     49% 0.00in /  0mm 209.00 W/m2
08:45 47.2 °F /  8.4 °C 29.0 °F /  -1.7 °C 30.49in /  1032.4hPa Calm     49% 0.00in /  0mm 237.00 W/m2
08:55 47.6 °F /  8.7 °C 29.4 °F /  -1.4 °C 30.49in /  1032.4hPa Calm     49% 0.00in /  0mm 281.00 W/m2
09:00 47.9 °F /  8.8 °C 29.2 °F /  -1.6 °C 30.49in /  1032.4hPa Calm     48% 0.00in /  0mm 304.00 W/m2
09:05 48.2 °F /  9 °C 30.5 °F /  -0.8 °C 30.49in /  1032.4hPa Calm     50% 0.00in /  0mm 302.00 W/m2
09:10 48.6 °F /  9.2 °C 31.8 °F /  -0.1 °C 30.49in /  1032.4hPa Calm     52% 0.00in /  0mm 274.00 W/m2
09:20 49.2 °F /  9.6 °C 32.3 °F /  0.2 °C 30.49in /  1032.4hPa Calm     52% 0.00in /  0mm 239.00 W/m2
09:21 49.2 °F /  9.6 °C 32.3 °F /  0.2 °C 30.49in /  1032.4hPa Calm     52% 0.00in /  0mm 244.00 W/m2
09:26 49.5 °F /  9.7 °C 33.6 °F /  0.9 °C 30.49in /  1032.4hPa Calm     54% 0.00in /  0mm 232.00 W/m2
09:31 49.8 °F /  9.9 °C 34.3 °F /  1.3 °C 30.49in /  1032.4hPa Calm     55% 0.00in /  0mm 258.00 W/m2
09:36 49.9 °F /  9.9 °C 34.8 °F /  1.6 °C 30.49in /  1032.4hPa Calm     56% 0.00in /  0mm 202.00 W/m2
09:41 50.2 °F /  10.1 °C 35.1 °F /  1.7 °C 30.49in /  1032.4hPa Calm     56% 0.00in /  0mm 306.00 W/m2
09:47 50.6 °F /  10.3 °C 36.4 °F /  2.4 °C 30.49in /  1032.4hPa Calm     58% 0.00in /  0mm 343.00 W/m2
09:52 51.0 °F /  10.6 °C 36.3 °F /  2.4 °C 30.49in /  1032.4hPa Calm     57% 0.00in /  0mm 360.00 W/m2
09:57 51.3 °F /  10.7 °C 36.2 °F /  2.3 °C 30.49in /  1032.4hPa Calm     56% 0.00in /  0mm 366.00 W/m2
10:02 51.6 °F /  10.9 °C 35.5 °F /  1.9 °C 30.49in /  1032.4hPa Calm     54% 0.00in /  0mm 380.00 W/m2
10:12 52.2 °F /  11.2 °C 34.6 °F /  1.4 °C 30.49in /  1032.4hPa Calm     51% 0.00in /  0mm 332.00 W/m2
10:17 52.6 °F /  11.4 °C 32.4 °F /  0.2 °C 30.49in /  1032.4hPa Calm     46% 0.00in /  0mm 397.00 W/m2
10:22 53.0 °F /  11.7 °C 32.2 °F /  0.1 °C 30.48in /  1032.1hPa Calm     45% 0.00in /  0mm 424.00 W/m2
10:32 53.8 °F /  12.1 °C 30.1 °F /  -1.1 °C 30.48in /  1032.1hPa Calm     40% 0.00in /  0mm 464.00 W/m2
10:44 54.8 °F /  12.7 °C 25.5 °F /  -3.6 °C 30.47in /  1031.7hPa Calm     32% 0.00in /  0mm 485.00 W/m2
10:49 55.2 °F /  12.9 °C 23.5 °F /  -4.7 °C 30.47in /  1031.7hPa Calm     29% 0.00in /  0mm 492.00 W/m2
10:54 55.6 °F /  13.1 °C 28.4 °F /  -2 °C 30.48in /  1032.1hPa Calm     35% 0.00in /  0mm 497.00 W/m2
10:59 55.9 °F /  13.3 °C 30.0 °F /  -1.1 °C 30.47in /  1031.7hPa East 1.0mph /  1.6km/h 2.0mph /  3.2km/h 37% 0.00in /  0mm 503.00 W/m2
11:04 56.3 °F /  13.5 °C 32.3 °F /  0.2 °C 30.47in /  1031.7hPa East 1.0mph /  1.6km/h 2.0mph /  3.2km/h 40% 0.00in /  0mm 503.00 W/m2
11:09 56.5 °F /  13.6 °C 29.2 °F /  -1.6 °C 30.47in /  1031.7hPa East 1.0mph /  1.6km/h 2.0mph /  3.2km/h 35% 0.00in /  0mm 508.00 W/m2
11:14 57.0 °F /  13.9 °C 30.3 °F /  -0.9 °C 30.47in /  1031.7hPa Calm   4.0mph /  6.4km/h 36% 0.00in /  0mm 512.00 W/m2
11:19 57.5 °F /  14.2 °C 27.9 °F /  -2.3 °C 30.47in /  1031.7hPa NNW 2.0mph /  3.2km/h 5.0mph /  8km/h 32% 0.00in /  0mm 510.00 W/m2
11:24 57.9 °F /  14.4 °C 27.5 °F /  -2.5 °C 30.47in /  1031.7hPa NNW 1.0mph /  1.6km/h 4.0mph /  6.4km/h 31% 0.00in /  0mm 519.00 W/m2
11:29 58.2 °F /  14.6 °C 25.3 °F /  -3.7 °C 30.46in /  1031.4hPa WNW 2.0mph /  3.2km/h 4.0mph /  6.4km/h 28% 0.00in /  0mm 519.00 W/m2
11:34 58.3 °F /  14.6 °C 26.2 °F /  -3.2 °C 30.46in /  1031.4hPa Calm   4.0mph /  6.4km/h 29% 0.00in /  0mm 506.00 W/m2
11:39 58.2 °F /  14.6 °C 26.1 °F /  -3.3 °C 30.46in /  1031.4hPa Calm   3.0mph /  4.8km/h 29% 0.00in /  0mm 501.00 W/m2
11:44 58.0 °F /  14.4 °C 29.1 °F /  -1.6 °C 30.46in /  1031.4hPa NW 2.0mph /  3.2km/h 5.0mph /  8km/h 33% 0.00in /  0mm 513.00 W/m2
11:49 57.8 °F /  14.3 °C 30.4 °F /  -0.9 °C 30.46in /  1031.4hPa Calm   4.0mph /  6.4km/h 35% 0.00in /  0mm 501.00 W/m2
11:54 57.7 °F /  14.3 °C 31.6 °F /  -0.2 °C 30.46in /  1031.4hPa Calm   3.0mph /  4.8km/h 37% 0.00in /  0mm 496.00 W/m2
12:09 57.3 °F /  14.1 °C 33.8 °F /  1 °C 30.45in /  1031hPa Calm   3.0mph /  4.8km/h 41% 0.00in /  0mm 512.00 W/m2
12:10 57.3 °F /  14.1 °C 33.8 °F /  1 °C 30.45in /  1031hPa WNW 1.0mph /  1.6km/h 3.0mph /  4.8km/h 41% 0.00in /  0mm 512.00 W/m2
12:20 57.3 °F /  14.1 °C 33.8 °F /  1 °C 30.45in /  1031hPa Calm   4.0mph /  6.4km/h 41% 0.00in /  0mm 517.00 W/m2
12:35 57.3 °F /  14.1 °C 33.8 °F /  1 °C 30.45in /  1031hPa WNW 1.0mph /  1.6km/h 4.0mph /  6.4km/h 41% 0.00in /  0mm 510.00 W/m2
12:40 57.3 °F /  14.1 °C 33.2 °F /  0.7 °C 30.44in /  1030.7hPa WNW 1.0mph /  1.6km/h 3.0mph /  4.8km/h 40% 0.00in /  0mm 497.00 W/m2
12:50 57.4 °F /  14.1 °C 33.9 °F /  1.1 °C 30.44in /  1030.7hPa Calm   4.0mph /  6.4km/h 41% 0.00in /  0mm 492.00 W/m2
12:55 57.4 °F /  14.1 °C 33.9 °F /  1.1 °C 30.44in /  1030.7hPa Calm   1.0mph /  1.6km/h 41% 0.00in /  0mm 490.00 W/m2
13:00 57.5 °F /  14.2 °C 34.6 °F /  1.4 °C 30.44in /  1030.7hPa Calm     42% 0.00in /  0mm 483.00 W/m2
13:05 57.7 °F /  14.3 °C 33.6 °F /  0.9 °C 30.43in /  1030.4hPa Calm   2.0mph /  3.2km/h 40% 0.00in /  0mm 464.00 W/m2
13:15 58.0 °F /  14.4 °C 34.5 °F /  1.4 °C 30.43in /  1030.4hPa Calm     41% 0.00in /  0mm 439.00 W/m2
13:25 58.1 °F /  14.5 °C 33.9 °F /  1.1 °C 30.43in /  1030.4hPa Calm     40% 0.00in /  0mm 459.00 W/m2
13:30 58.1 °F /  14.5 °C 31.3 °F /  -0.4 °C 30.42in /  1030hPa Calm   4.0mph /  6.4km/h 36% 0.00in /  0mm 464.00 W/m2
13:35 58.1 °F /  14.5 °C 32.0 °F /  0 °C 30.42in /  1030hPa Calm   2.0mph /  3.2km/h 37% 0.00in /  0mm 464.00 W/m2
13:40 58.1 °F /  14.5 °C 33.9 °F /  1.1 °C 30.42in /  1030hPa Calm   1.0mph /  1.6km/h 40% 0.00in /  0mm 457.00 W/m2
13:45 58.1 °F /  14.5 °C 33.3 °F /  0.7 °C 30.42in /  1030hPa Calm     39% 0.00in /  0mm 429.00 W/m2
13:50 58.1 °F /  14.5 °C 33.3 °F /  0.7 °C 30.42in /  1030hPa Calm     39% 0.00in /  0mm 406.00 W/m2
14:00 58.1 °F /  14.5 °C 35.2 °F /  1.8 °C 30.42in /  1030hPa Calm     42% 0.00in /  0mm 383.00 W/m2
14:10 58.1 °F /  14.5 °C 33.3 °F /  0.7 °C 30.41in /  1029.7hPa Calm     39% 0.00in /  0mm 334.00 W/m2
14:15 58.2 °F /  14.6 °C 34.6 °F /  1.4 °C 30.41in /  1029.7hPa Calm     41% 0.00in /  0mm 260.00 W/m2
14:20 58.1 °F /  14.5 °C 34.5 °F /  1.4 °C 30.41in /  1029.7hPa Calm     41% 0.00in /  0mm 278.00 W/m2
14:25 58.1 °F /  14.5 °C 35.7 °F /  2.1 °C 30.41in /  1029.7hPa Calm     43% 0.00in /  0mm 251.00 W/m2
14:30 58.1 °F /  14.5 °C 36.9 °F /  2.7 °C 30.41in /  1029.7hPa Calm     45% 0.00in /  0mm 290.00 W/m2
14:35 57.9 °F /  14.4 °C 35.6 °F /  2 °C 30.40in /  1029.3hPa Calm     43% 0.00in /  0mm 295.00 W/m2
14:40 57.8 °F /  14.3 °C 36.0 °F /  2.2 °C 30.40in /  1029.3hPa Calm     44% 0.00in /  0mm 253.00 W/m2
14:49 57.6 °F /  14.2 °C 37.0 °F /  2.8 °C 30.40in /  1029.3hPa Calm     46% 0.00in /  0mm 220.00 W/m2
14:54 57.4 °F /  14.1 °C 36.8 °F /  2.7 °C 30.39in /  1029hPa Calm     46% 0.00in /  0mm 225.00 W/m2
14:59 57.3 °F /  14.1 °C 39.3 °F /  4.1 °C 30.40in /  1029.3hPa Calm     51% 0.00in /  0mm 153.00 W/m2
15:04 57.2 °F /  14 °C 37.2 °F /  2.9 °C 30.40in /  1029.3hPa Calm     47% 0.00in /  0mm 139.00 W/m2
15:09 57.1 °F /  13.9 °C 37.6 °F /  3.1 °C 30.40in /  1029.3hPa Calm     48% 0.00in /  0mm 102.00 W/m2
15:14 56.9 °F /  13.8 °C 38.5 °F /  3.6 °C 30.40in /  1029.3hPa Calm     50% 0.00in /  0mm 102.00 W/m2
15:19 56.6 °F /  13.7 °C 37.2 °F /  2.9 °C 30.40in /  1029.3hPa Calm     48% 0.00in /  0mm 95.00 W/m2
15:34 55.5 °F /  13.1 °C 38.2 °F /  3.4 °C 30.40in /  1029.3hPa Calm     52% 0.00in /  0mm 107.00 W/m2
15:39 55.2 °F /  12.9 °C 38.4 °F /  3.6 °C 30.40in /  1029.3hPa Calm     53% 0.00in /  0mm 91.00 W/m2
15:44 54.8 °F /  12.7 °C 38.5 °F /  3.6 °C 30.39in /  1029hPa Calm     54% 0.00in /  0mm 81.00 W/m2
15:50 54.5 °F /  12.5 °C 38.2 °F /  3.4 °C 30.40in /  1029.3hPa Calm     54% 0.00in /  0mm 84.00 W/m2
15:55 54.3 °F /  12.4 °C 38.0 °F /  3.3 °C 30.40in /  1029.3hPa Calm     54% 0.00in /  0mm 60.00 W/m2
16:05 53.6 °F /  12 °C 37.8 °F /  3.2 °C 30.40in /  1029.3hPa Calm     55% 0.00in /  0mm 40.00 W/m2
16:10 53.3 °F /  11.8 °C 37.6 °F /  3.1 °C 30.40in /  1029.3hPa Calm     55% 0.00in /  0mm 37.00 W/m2
16:25 52.4 °F /  11.3 °C 37.6 °F /  3.1 °C 30.40in /  1029.3hPa Calm     57% 0.00in /  0mm 19.00 W/m2
16:31 52.2 °F /  11.2 °C 37.9 °F /  3.3 °C 30.40in /  1029.3hPa Calm     58% 0.00in /  0mm 12.00 W/m2
16:46 51.0 °F /  10.6 °C 38.5 °F /  3.6 °C 30.40in /  1029.3hPa Calm     62% 0.00in /  0mm 0.00 W/m2
16:51 50.6 °F /  10.3 °C 38.1 °F /  3.4 °C 30.40in /  1029.3hPa Calm     62% 0.00in /  0mm 0.00 W/m2
17:01 50.0 °F /  10 °C 37.5 °F /  3.1 °C 30.40in /  1029.3hPa Calm     62% 0.00in /  0mm 0.00 W/m2
17:06 49.8 °F /  9.9 °C 37.7 °F /  3.2 °C 30.40in /  1029.3hPa Calm     63% 0.00in /  0mm 0.00 W/m2
17:16 49.5 °F /  9.7 °C 37.0 °F /  2.8 °C 30.40in /  1029.3hPa Calm     62% 0.00in /  0mm 0.00 W/m2
17:21 49.2 °F /  9.6 °C 37.2 °F /  2.9 °C 30.40in /  1029.3hPa Calm     63% 0.00in /  0mm 0.00 W/m2
17:26 49.0 °F /  9.4 °C 37.4 °F /  3 °C 30.39in /  1029hPa NNW 1.0mph /  1.6km/h 1.0mph /  1.6km/h 64% 0.00in /  0mm 0.00 W/m2
17:31 48.8 °F /  9.3 °C 37.2 °F /  2.9 °C 30.39in /  1029hPa Calm     64% 0.00in /  0mm 0.00 W/m2
17:36 48.6 °F /  9.2 °C 37.0 °F /  2.8 °C 30.39in /  1029hPa Calm     64% 0.00in /  0mm 0.00 W/m2
17:42 48.5 °F /  9.2 °C 37.3 °F /  2.9 °C 30.39in /  1029hPa Calm     65% 0.00in /  0mm 0.00 W/m2
17:51 48.5 °F /  9.2 °C 37.3 °F /  2.9 °C 30.39in /  1029hPa Calm   4.0mph /  6.4km/h 65% 0.00in /  0mm 0.00 W/m2
17:57 48.4 °F /  9.1 °C 36.8 °F /  2.7 °C 30.39in /  1029hPa ENE 6.0mph /  9.7km/h 6.0mph /  9.7km/h 64% 0.00in /  0mm 0.00 W/m2
17:58 48.5 °F /  9.2 °C 37.3 °F /  2.9 °C 30.39in /  1029hPa Calm   6.0mph /  9.7km/h 65% 0.00in /  0mm 0.00 W/m2
18:13 48.7 °F /  9.3 °C 37.1 °F /  2.8 °C 30.40in /  1029.3hPa Calm   6.0mph /  9.7km/h 64% 0.00in /  0mm 0.00 W/m2
18:18 48.9 °F /  9.4 °C 37.3 °F /  2.9 °C 30.40in /  1029.3hPa East 4.0mph /  6.4km/h 7.0mph /  11.3km/h 64% 0.00in /  0mm 0.00 W/m2
18:23 49.2 °F /  9.6 °C 37.6 °F /  3.1 °C 30.40in /  1029.3hPa East 5.0mph /  8km/h 7.0mph /  11.3km/h 64% 0.00in /  0mm 0.00 W/m2
18:28 49.4 °F /  9.7 °C 37.8 °F /  3.2 °C 30.39in /  1029hPa Calm   7.0mph /  11.3km/h 64% 0.00in /  0mm 0.00 W/m2
18:33 49.6 °F /  9.8 °C 37.5 °F /  3.1 °C 30.40in /  1029.3hPa Calm   9.0mph /  14.5km/h 63% 0.00in /  0mm 0.00 W/m2
18:38 49.9 °F /  9.9 °C 37.8 °F /  3.2 °C 30.40in /  1029.3hPa Calm   7.0mph /  11.3km/h 63% 0.00in /  0mm 0.00 W/m2
18:58 50.5 °F /  10.3 °C 38.4 °F /  3.6 °C 30.40in /  1029.3hPa Calm   7.0mph /  11.3km/h 63% 0.00in /  0mm 0.00 W/m2
19:04 50.6 °F /  10.3 °C 38.1 °F /  3.4 °C 30.40in /  1029.3hPa Calm   5.0mph /  8km/h 62% 0.00in /  0mm 0.00 W/m2
19:06 50.6 °F /  10.3 °C 38.1 °F /  3.4 °C 30.40in /  1029.3hPa Calm     62% 0.00in /  0mm 0.00 W/m2
19:11 50.7 °F /  10.4 °C 38.2 °F /  3.4 °C 30.40in /  1029.3hPa Calm     62% 0.00in /  0mm 0.00 W/m2
19:16 50.8 °F /  10.4 °C 38.3 °F /  3.5 °C 30.40in /  1029.3hPa Calm   2.0mph /  3.2km/h 62% 0.00in /  0mm 0.00 W/m2
19:19 50.8 °F /  10.4 °C 38.3 °F /  3.5 °C 30.40in /  1029.3hPa Calm   2.0mph /  3.2km/h 62% 0.00in /  0mm 0.00 W/m2
19:22 50.9 °F /  10.5 °C 38.4 °F /  3.6 °C 30.40in /  1029.3hPa Calm     62% 0.00in /  0mm 0.00 W/m2
19:23 50.9 °F /  10.5 °C 38.4 °F /  3.6 °C 30.40in /  1029.3hPa Calm     62% 0.00in /  0mm 0.00 W/m2
19:28 50.9 °F /  10.5 °C 38.4 °F /  3.6 °C 30.40in /  1029.3hPa Calm   2.0mph /  3.2km/h 62% 0.00in /  0mm 0.00 W/m2
19:31 50.9 °F /  10.5 °C 38.4 °F /  3.6 °C 30.40in /  1029.3hPa Calm     62% 0.00in /  0mm 0.00 W/m2
19:36 50.9 °F /  10.5 °C 38.4 °F /  3.6 °C 30.40in /  1029.3hPa Calm   1.0mph /  1.6km/h 62% 0.00in /  0mm 0.00 W/m2
19:41 50.8 °F /  10.4 °C 37.8 °F /  3.2 °C 30.40in /  1029.3hPa Calm     61% 0.00in /  0mm 0.00 W/m2
19:56 50.7 °F /  10.4 °C 37.3 °F /  2.9 °C 30.40in /  1029.3hPa Calm     60% 0.00in /  0mm 0.00 W/m2
20:01 50.7 °F /  10.4 °C 37.8 °F /  3.2 °C 30.40in /  1029.3hPa Calm     61% 0.00in /  0mm 0.00 W/m2
20:06 50.6 °F /  10.3 °C 37.2 °F /  2.9 °C 30.40in /  1029.3hPa Calm     60% 0.00in /  0mm 0.00 W/m2
20:11 50.4 °F /  10.2 °C 37.0 °F /  2.8 °C 30.40in /  1029.3hPa Calm     60% 0.00in /  0mm 0.00 W/m2
20:16 50.3 °F /  10.2 °C 37.0 °F /  2.8 °C 30.40in /  1029.3hPa Calm     60% 0.00in /  0mm 0.00 W/m2
20:26 50.0 °F /  10 °C 36.7 °F /  2.6 °C 30.40in /  1029.3hPa Calm     60% 0.00in /  0mm 0.00 W/m2
20:32 49.9 °F /  9.9 °C 36.6 °F /  2.6 °C 30.40in /  1029.3hPa Calm     60% 0.00in /  0mm 0.00 W/m2
20:42 49.8 °F /  9.9 °C 36.5 °F /  2.5 °C 30.40in /  1029.3hPa Calm     60% 0.00in /  0mm 0.00 W/m2
20:47 49.8 °F /  9.9 °C 36.1 °F /  2.3 °C 30.40in /  1029.3hPa Calm   6.0mph /  9.7km/h 59% 0.00in /  0mm 0.00 W/m2
20:52 49.9 °F /  9.9 °C 36.2 °F /  2.3 °C 30.40in /  1029.3hPa East 4.0mph /  6.4km/h 9.0mph /  14.5km/h 59% 0.00in /  0mm 0.00 W/m2
20:57 49.9 °F /  9.9 °C 35.3 °F /  1.8 °C 30.40in /  1029.3hPa East 12.0mph /  19.3km/h 12.0mph /  19.3km/h 57% 0.00in /  0mm 0.00 W/m2
21:02 50.0 °F /  10 °C 34.0 °F /  1.1 °C 30.40in /  1029.3hPa East 2.0mph /  3.2km/h 8.0mph /  12.9km/h 54% 0.00in /  0mm 0.00 W/m2
21:08 50.1 °F /  10.1 °C 34.1 °F /  1.2 °C 30.40in /  1029.3hPa Calm   12.0mph /  19.3km/h 54% 0.00in /  0mm 0.00 W/m2
21:18 50.4 °F /  10.2 °C 33.5 °F /  0.8 °C 30.40in /  1029.3hPa East 1.0mph /  1.6km/h 9.0mph /  14.5km/h 52% 0.00in /  0mm 0.00 W/m2
21:23 50.5 °F /  10.3 °C 33.5 °F /  0.8 °C 30.40in /  1029.3hPa Calm   6.0mph /  9.7km/h 52% 0.00in /  0mm 0.00 W/m2
21:28 50.5 °F /  10.3 °C 34.0 °F /  1.1 °C 30.41in /  1029.7hPa Calm     53% 0.00in /  0mm 0.00 W/m2
21:33 50.4 °F /  10.2 °C 34.4 °F /  1.3 °C 30.41in /  1029.7hPa Calm   1.0mph /  1.6km/h 54% 0.00in /  0mm 0.00 W/m2
21:38 50.2 °F /  10.1 °C 34.2 °F /  1.2 °C 30.40in /  1029.3hPa ESE 1.0mph /  1.6km/h 5.0mph /  8km/h 54% 0.00in /  0mm 0.00 W/m2
21:43 49.9 °F /  9.9 °C 33.9 °F /  1.1 °C 30.41in /  1029.7hPa ESE 9.0mph /  14.5km/h 9.0mph /  14.5km/h 54% 0.00in /  0mm 0.00 W/m2
21:53 49.6 °F /  9.8 °C 31.2 °F /  -0.4 °C 30.41in /  1029.7hPa East 7.0mph /  11.3km/h 12.0mph /  19.3km/h 49% 0.00in /  0mm 0.00 W/m2
21:58 49.7 °F /  9.8 °C 31.3 °F /  -0.4 °C 30.41in /  1029.7hPa Calm   12.0mph /  19.3km/h 49% 0.00in /  0mm 0.00 W/m2
22:03 49.9 °F /  9.9 °C 31.0 °F /  -0.6 °C 30.41in /  1029.7hPa East 1.0mph /  1.6km/h 11.0mph /  17.7km/h 48% 0.00in /  0mm 0.00 W/m2
22:13 50.3 °F /  10.2 °C 29.8 °F /  -1.2 °C 30.41in /  1029.7hPa Calm   6.0mph /  9.7km/h 45% 0.00in /  0mm 0.00 W/m2
22:18 50.5 °F /  10.3 °C 30.5 °F /  -0.8 °C 30.40in /  1029.3hPa Calm   8.0mph /  12.9km/h 46% 0.00in /  0mm 0.00 W/m2
22:23 50.6 °F /  10.3 °C 29.5 °F /  -1.4 °C 30.40in /  1029.3hPa East 2.0mph /  3.2km/h 8.0mph /  12.9km/h 44% 0.00in /  0mm 0.00 W/m2
22:28 50.6 °F /  10.3 °C 29.5 °F /  -1.4 °C 30.40in /  1029.3hPa ESE 5.0mph /  8km/h 11.0mph /  17.7km/h 44% 0.00in /  0mm 0.00 W/m2
22:43 50.7 °F /  10.4 °C 28.5 °F /  -1.9 °C 30.40in /  1029.3hPa Calm   12.0mph /  19.3km/h 42% 0.00in /  0mm 0.00 W/m2
22:53 50.7 °F /  10.4 °C 30.1 °F /  -1.1 °C 30.40in /  1029.3hPa Calm   7.0mph /  11.3km/h 45% 0.00in /  0mm 0.00 W/m2
22:58 50.6 °F /  10.3 °C 27.8 °F /  -2.3 °C 30.40in /  1029.3hPa Calm     41% 0.00in /  0mm 0.00 W/m2
23:03 50.5 °F /  10.3 °C 27.1 °F /  -2.7 °C 30.41in /  1029.7hPa Calm   1.0mph /  1.6km/h 40% 0.00in /  0mm 0.00 W/m2
23:08 50.5 °F /  10.3 °C 27.1 °F /  -2.7 °C 30.40in /  1029.3hPa Calm   5.0mph /  8km/h 40% 0.00in /  0mm 0.00 W/m2
23:13 50.4 °F /  10.2 °C 27.6 °F /  -2.4 °C 30.41in /  1029.7hPa Calm   7.0mph /  11.3km/h 41% 0.00in /  0mm 0.00 W/m2
23:18 50.3 °F /  10.2 °C 29.8 °F /  -1.2 °C 30.41in /  1029.7hPa Calm   7.0mph /  11.3km/h 45% 0.00in /  0mm 0.00 W/m2
23:24 50.0 °F /  10 °C 27.8 °F /  -2.3 °C 30.40in /  1029.3hPa Calm   8.0mph /  12.9km/h 42% 0.00in /  0mm 0.00 W/m2
23:34 49.5 °F /  9.7 °C 26.8 °F /  -2.9 °C 30.40in /  1029.3hPa Calm   6.0mph /  9.7km/h 41% 0.00in /  0mm 0.00 W/m2
23:39 49.3 °F /  9.6 °C 27.8 °F /  -2.3 °C 30.41in /  1029.7hPa East 1.0mph /  1.6km/h 5.0mph /  8km/h 43% 0.00in /  0mm 0.00 W/m2
23:44 49.2 °F /  9.6 °C 27.7 °F /  -2.4 °C 30.40in /  1029.3hPa Calm   7.0mph /  11.3km/h 43% 0.00in /  0mm 0.00 W/m2
23:59 48.7 °F /  9.3 °C 28.3 °F /  -2.1 °C 30.40in /  1029.3hPa Calm   6.0mph /  9.7km/h 45% 0.00in /  0mm 0.00 W/m2
Foresthill Weather
 WU-history PHP script courtesy of   Juneau County Weather.
powered by Cumulus v1.9.3 (1059)
Ambient Weather VWS v14.00
Top Contact Website Map Copyright © 2007 - 2018 Foresthillweather.com Never base important decisions on this or any weather information obtained from the Internet